sensor_id;sensor_type;location;lat;lon;timestamp;pressure;altitude;pressure_sealevel;temperature;humidity
39699;BME280;25372;50.582;12.250;2023-01-05T00:01:43;99303.19;;;9.79;86.02
39699;BME280;25372;50.582;12.250;2023-01-05T00:12:05;99304.19;;;10.06;82.35
39699;BME280;25372;50.582;12.250;2023-01-05T00:22:46;99294.25;;;10.15;81.66
39699;BME280;25372;50.582;12.250;2023-01-05T00:33:09;99296.31;;;10.12;80.52
39699;BME280;25372;50.582;12.250;2023-01-05T00:43:30;99310.63;;;10.25;79.16
39699;BME280;25372;50.582;12.250;2023-01-05T00:53:52;99308.34;;;10.15;80.66
39699;BME280;25372;50.582;12.250;2023-01-05T01:04:13;99307.91;;;10.11;81.66
39699;BME280;25372;50.582;12.250;2023-01-05T01:14:36;99296.44;;;10.04;82.56
39699;BME280;25372;50.582;12.250;2023-01-05T01:24:57;99300.47;;;10.00;83.18
39699;BME280;25372;50.582;12.250;2023-01-05T01:35:20;99302.13;;;10.01;82.67
39699;BME280;25372;50.582;12.250;2023-01-05T01:45:41;99303.38;;;10.05;80.74
39699;BME280;25372;50.582;12.250;2023-01-05T01:56:06;99321.19;;;10.18;78.80
39699;BME280;25372;50.582;12.250;2023-01-05T02:06:29;99305.06;;;10.13;79.15
39699;BME280;25372;50.582;12.250;2023-01-05T02:17:02;99301.34;;;10.07;79.45
39699;BME280;25372;50.582;12.250;2023-01-05T02:27:31;99289.81;;;10.15;77.25
39699;BME280;25372;50.582;12.250;2023-01-05T02:38:01;99307.63;;;10.00;82.48
39699;BME280;25372;50.582;12.250;2023-01-05T02:48:26;99300.31;;;9.52;84.03
39699;BME280;25372;50.582;12.250;2023-01-05T02:58:51;99284.59;;;9.72;81.82
39699;BME280;25372;50.582;12.250;2023-01-05T03:09:17;99257.44;;;9.91;78.10
39699;BME280;25372;50.582;12.250;2023-01-05T03:19:43;99276.13;;;10.11;76.84
39699;BME280;25372;50.582;12.250;2023-01-05T03:30:07;99280.16;;;10.07;76.54
39699;BME280;25372;50.582;12.250;2023-01-05T03:40:50;99279.44;;;10.20;74.75
39699;BME280;25372;50.582;12.250;2023-01-05T03:51:14;99283.72;;;10.21;74.35
39699;BME280;25372;50.582;12.250;2023-01-05T04:01:36;99296.88;;;10.36;72.49
39699;BME280;25372;50.582;12.250;2023-01-05T04:11:57;99282.22;;;10.40;72.34
39699;BME280;25372;50.582;12.250;2023-01-05T04:22:20;99321.59;;;10.22;75.43
39699;BME280;25372;50.582;12.250;2023-01-05T04:32:41;99338.03;;;9.39;83.72
39699;BME280;25372;50.582;12.250;2023-01-05T04:43:07;99336.97;;;9.55;79.80
39699;BME280;25372;50.582;12.250;2023-01-05T04:53:28;99348.19;;;9.35;80.28
39699;BME280;25372;50.582;12.250;2023-01-05T05:03:52;99365.22;;;9.33;80.63
39699;BME280;25372;50.582;12.250;2023-01-05T05:14:15;99376.50;;;9.41;80.31
39699;BME280;25372;50.582;12.250;2023-01-05T05:24:38;99374.06;;;9.62;78.26
39699;BME280;25372;50.582;12.250;2023-01-05T05:35:01;99391.94;;;9.01;85.01
39699;BME280;25372;50.582;12.250;2023-01-05T05:45:23;99391.66;;;8.81;86.19
39699;BME280;25372;50.582;12.250;2023-01-05T05:55:46;99379.75;;;8.85;84.46
39699;BME280;25372;50.582;12.250;2023-01-05T06:06:09;99400.66;;;9.17;80.55
39699;BME280;25372;50.582;12.250;2023-01-05T06:16:30;99381.69;;;9.13;80.76
39699;BME280;25372;50.582;12.250;2023-01-05T06:26:52;99404.66;;;9.28;78.80
39699;BME280;25372;50.582;12.250;2023-01-05T06:37:12;99396.88;;;9.26;79.07
39699;BME280;25372;50.582;12.250;2023-01-05T06:47:35;99422.31;;;9.27;77.76
39699;BME280;25372;50.582;12.250;2023-01-05T06:57:56;99424.91;;;9.20;77.56
39699;BME280;25372;50.582;12.250;2023-01-05T07:08:18;99451.69;;;9.32;76.70
39699;BME280;25372;50.582;12.250;2023-01-05T07:18:39;99460.91;;;9.36;76.72
39699;BME280;25372;50.582;12.250;2023-01-05T07:29:01;99470.41;;;9.31;77.05
39699;BME280;25372;50.582;12.250;2023-01-05T07:39:22;99489.38;;;9.04;81.82
39699;BME280;25372;50.582;12.250;2023-01-05T07:49:44;99496.38;;;8.97;81.54
39699;BME280;25372;50.582;12.250;2023-01-05T08:00:06;99504.22;;;8.52;87.42
39699;BME280;25372;50.582;12.250;2023-01-05T08:10:38;99514.97;;;8.51;89.07
39699;BME280;25372;50.582;12.250;2023-01-05T08:21:00;99514.75;;;8.76;85.14
39699;BME280;25372;50.582;12.250;2023-01-05T08:31:26;99534.81;;;8.47;88.62
39699;BME280;25372;50.582;12.250;2023-01-05T08:41:47;99558.06;;;8.51;91.21
39699;BME280;25372;50.582;12.250;2023-01-05T08:52:09;99556.94;;;8.46;91.14
39699;BME280;25372;50.582;12.250;2023-01-05T09:02:30;99579.34;;;8.50;91.38
39699;BME280;25372;50.582;12.250;2023-01-05T09:12:52;99590.47;;;8.37;92.39
39699;BME280;25372;50.582;12.250;2023-01-05T09:23:12;99593.25;;;8.44;93.32
39699;BME280;25372;50.582;12.250;2023-01-05T09:33:34;99615.34;;;8.74;91.43
39699;BME280;25372;50.582;12.250;2023-01-05T09:43:57;99608.41;;;8.50;93.49
39699;BME280;25372;50.582;12.250;2023-01-05T09:54:21;99607.84;;;9.01;87.13
39699;BME280;25372;50.582;12.250;2023-01-05T10:04:43;99614.56;;;8.88;87.38
39699;BME280;25372;50.582;12.250;2023-01-05T10:15:09;99632.31;;;9.03;86.51
39699;BME280;25372;50.582;12.250;2023-01-05T10:25:37;99632.81;;;9.36;85.22
39699;BME280;25372;50.582;12.250;2023-01-05T10:36:13;99635.50;;;9.13;86.11
39699;BME280;25372;50.582;12.250;2023-01-05T10:46:40;99650.03;;;8.40;95.60
39699;BME280;25372;50.582;12.250;2023-01-05T10:57:30;99652.59;;;8.56;97.25
39699;BME280;25372;50.582;12.250;2023-01-05T11:07:54;99662.13;;;8.34;99.07
39699;BME280;25372;50.582;12.250;2023-01-05T11:18:23;99655.69;;;8.36;97.12
39699;BME280;25372;50.582;12.250;2023-01-05T11:28:56;99665.72;;;8.49;94.58
39699;BME280;25372;50.582;12.250;2023-01-05T11:39:25;99641.50;;;8.84;90.84
39699;BME280;25372;50.582;12.250;2023-01-05T11:49:48;99668.41;;;9.49;86.51
39699;BME280;25372;50.582;12.250;2023-01-05T12:00:21;99696.81;;;9.32;86.47
39699;BME280;25372;50.582;12.250;2023-01-05T12:10:53;99686.19;;;9.55;85.53
39699;BME280;25372;50.582;12.250;2023-01-05T12:21:21;99695.03;;;9.77;82.71
39699;BME280;25372;50.582;12.250;2023-01-05T12:31:57;99692.44;;;9.39;87.20
39699;BME280;25372;50.582;12.250;2023-01-05T12:42:57;99703.16;;;9.60;84.61
39699;BME280;25372;50.582;12.250;2023-01-05T12:53:32;99729.22;;;9.11;90.17
39699;BME280;25372;50.582;12.250;2023-01-05T13:04:01;99736.47;;;8.62;97.07
39699;BME280;25372;50.582;12.250;2023-01-05T13:14:24;99732.19;;;8.61;96.54
39699;BME280;25372;50.582;12.250;2023-01-05T13:24:53;99733.03;;;8.85;93.41
39699;BME280;25372;50.582;12.250;2023-01-05T13:35:29;99754.75;;;8.95;91.73
39699;BME280;25372;50.582;12.250;2023-01-05T13:46:08;99780.72;;;8.92;90.76
39699;BME280;25372;50.582;12.250;2023-01-05T13:56:32;99805.97;;;8.63;95.22
39699;BME280;25372;50.582;12.250;2023-01-05T14:06:56;99830.69;;;8.06;100.00
39699;BME280;25372;50.582;12.250;2023-01-05T14:17:52;99877.22;;;7.57;100.00
39699;BME280;25372;50.582;12.250;2023-01-05T14:28:39;99926.59;;;7.30;100.00
39699;BME280;25372;50.582;12.250;2023-01-05T14:39:02;99947.34;;;6.91;100.00
39699;BME280;25372;50.582;12.250;2023-01-05T14:49:30;99969.25;;;6.91;100.00
39699;BME280;25372;50.582;12.250;2023-01-05T14:59:59;99989.09;;;6.77;100.00
39699;BME280;25372;50.582;12.250;2023-01-05T15:10:37;100008.66;;;6.75;100.00
39699;BME280;25372;50.582;12.250;2023-01-05T15:32:02;100015.31;;;6.61;100.00
39699;BME280;25372;50.582;12.250;2023-01-05T15:42:28;100006.81;;;6.49;100.00
39699;BME280;25372;50.582;12.250;2023-01-05T15:52:56;100028.44;;;6.53;100.00
39699;BME280;25372;50.582;12.250;2023-01-05T16:03:20;100044.84;;;6.47;100.00
39699;BME280;25372;50.582;12.250;2023-01-05T16:13:43;100062.50;;;6.18;100.00
39699;BME280;25372;50.582;12.250;2023-01-05T16:24:12;100064.06;;;6.29;100.00
39699;BME280;25372;50.582;12.250;2023-01-05T16:34:35;100069.72;;;6.34;100.00
39699;BME280;25372;50.582;12.250;2023-01-05T16:44:57;100097.63;;;6.27;100.00
39699;BME280;25372;50.582;12.250;2023-01-05T16:55:27;100112.97;;;6.32;100.00
39699;BME280;25372;50.582;12.250;2023-01-05T17:05:50;100132.97;;;6.24;100.00
39699;BME280;25372;50.582;12.250;2023-01-05T17:16:13;100131.03;;;6.26;100.00
39699;BME280;25372;50.582;12.250;2023-01-05T17:26:37;100147.16;;;6.14;100.00
39699;BME280;25372;50.582;12.250;2023-01-05T17:36:59;100167.63;;;6.20;100.00
39699;BME280;25372;50.582;12.250;2023-01-05T17:47:20;100164.03;;;6.21;100.00
39699;BME280;25372;50.582;12.250;2023-01-05T17:57:42;100181.09;;;6.17;100.00
39699;BME280;25372;50.582;12.250;2023-01-05T18:08:03;100192.44;;;6.17;100.00
39699;BME280;25372;50.582;12.250;2023-01-05T18:18:25;100199.50;;;6.17;100.00
39699;BME280;25372;50.582;12.250;2023-01-05T18:28:46;100200.91;;;6.11;100.00
39699;BME280;25372;50.582;12.250;2023-01-05T18:39:08;100216.84;;;6.09;100.00
39699;BME280;25372;50.582;12.250;2023-01-05T18:49:29;100234.59;;;6.07;100.00
39699;BME280;25372;50.582;12.250;2023-01-05T18:59:51;100248.59;;;5.98;100.00
39699;BME280;25372;50.582;12.250;2023-01-05T19:10:11;100250.13;;;5.91;100.00
39699;BME280;25372;50.582;12.250;2023-01-05T19:20:33;100241.25;;;5.92;100.00
39699;BME280;25372;50.582;12.250;2023-01-05T19:31:01;100245.00;;;5.89;100.00
39699;BME280;25372;50.582;12.250;2023-01-05T19:41:23;100254.63;;;5.71;100.00
39699;BME280;25372;50.582;12.250;2023-01-05T19:51:45;100256.53;;;5.69;100.00
39699;BME280;25372;50.582;12.250;2023-01-05T20:02:07;100278.16;;;5.72;100.00
39699;BME280;25372;50.582;12.250;2023-01-05T20:12:28;100276.91;;;5.67;100.00
39699;BME280;25372;50.582;12.250;2023-01-05T20:22:51;100301.81;;;5.63;100.00
39699;BME280;25372;50.582;12.250;2023-01-05T20:33:12;100308.19;;;5.70;100.00
39699;BME280;25372;50.582;12.250;2023-01-05T20:43:34;100303.44;;;5.73;100.00
39699;BME280;25372;50.582;12.250;2023-01-05T20:53:57;100312.88;;;5.76;100.00
39699;BME280;25372;50.582;12.250;2023-01-05T21:04:20;100320.22;;;5.72;100.00
39699;BME280;25372;50.582;12.250;2023-01-05T21:14:41;100335.28;;;5.61;100.00
39699;BME280;25372;50.582;12.250;2023-01-05T21:25:03;100358.72;;;5.64;100.00
39699;BME280;25372;50.582;12.250;2023-01-05T21:35:24;100363.38;;;5.50;100.00
39699;BME280;25372;50.582;12.250;2023-01-05T21:45:46;100367.13;;;5.57;100.00
39699;BME280;25372;50.582;12.250;2023-01-05T21:56:12;100376.66;;;5.49;100.00
39699;BME280;25372;50.582;12.250;2023-01-05T22:06:47;100381.94;;;5.49;100.00
39699;BME280;25372;50.582;12.250;2023-01-05T22:17:07;100357.44;;;5.68;100.00
39699;BME280;25372;50.582;12.250;2023-01-05T22:27:30;100361.88;;;5.67;100.00
39699;BME280;25372;50.582;12.250;2023-01-05T22:37:51;100362.16;;;5.64;100.00
39699;BME280;25372;50.582;12.250;2023-01-05T22:48:13;100375.72;;;5.69;100.00
39699;BME280;25372;50.582;12.250;2023-01-05T22:58:35;100372.97;;;5.61;100.00
39699;BME280;25372;50.582;12.250;2023-01-05T23:08:57;100403.53;;;5.72;100.00
39699;BME280;25372;50.582;12.250;2023-01-05T23:19:18;100408.25;;;5.58;100.00
39699;BME280;25372;50.582;12.250;2023-01-05T23:29:41;100404.34;;;5.53;100.00
39699;BME280;25372;50.582;12.250;2023-01-05T23:40:02;100412.38;;;5.51;100.00
39699;BME280;25372;50.582;12.250;2023-01-05T23:50:24;100411.41;;;5.52;100.00
